sensor_id;sensor_type;location;lat;lon;timestamp;pressure;altitude;pressure_sealevel;temperature;humidity
76478;BME280;65309;49.790;18.972;2023-11-21T00:03:32;60222.06;;;-145.46;93.57
76478;BME280;65309;49.790;18.972;2023-11-21T00:08:35;60219.97;;;-145.46;92.74
76478;BME280;65309;49.790;18.972;2023-11-21T00:13:37;60238.88;;;-145.46;92.28
76478;BME280;65309;49.790;18.972;2023-11-21T00:18:41;60224.19;;;-145.46;91.98
76478;BME280;65309;49.790;18.972;2023-11-21T00:23:44;60175.81;;;-145.46;91.63
76478;BME280;65309;49.790;18.972;2023-11-21T00:28:47;60259.91;;;-145.46;91.77
76478;BME280;65309;49.790;18.972;2023-11-21T00:33:50;60184.22;;;-145.46;91.52
76478;BME280;65309;49.790;18.972;2023-11-21T00:38:52;60175.81;;;-145.46;91.01
76478;BME280;65309;49.790;18.972;2023-11-21T00:43:55;60213.66;;;-145.46;91.46
76478;BME280;65309;49.790;18.972;2023-11-21T00:48:58;60207.34;;;-145.46;89.49
76478;BME280;65309;49.790;18.972;2023-11-21T00:54:00;60222.06;;;-145.46;90.07
76478;BME280;65309;49.790;18.972;2023-11-21T00:59:03;60226.28;;;-145.46;90.63
76478;BME280;65309;49.790;18.972;2023-11-21T01:04:08;60236.78;;;-145.46;92.33
76478;BME280;65309;49.790;18.972;2023-11-21T01:09:10;60230.47;;;-145.46;92.38
76478;BME280;65309;49.790;18.972;2023-11-21T01:14:12;60222.06;;;-145.46;93.09
76478;BME280;65309;49.790;18.972;2023-11-21T01:19:16;60192.63;;;-145.46;93.28
76478;BME280;65309;49.790;18.972;2023-11-21T01:24:19;60226.28;;;-145.46;94.05
76478;BME280;65309;49.790;18.972;2023-11-21T01:29:21;60226.28;;;-145.46;94.55
76478;BME280;65309;49.790;18.972;2023-11-21T01:34:24;60213.66;;;-145.46;95.37
76478;BME280;65309;49.790;18.972;2023-11-21T01:39:28;60190.53;;;-145.46;95.66
76478;BME280;65309;49.790;18.972;2023-11-21T01:44:30;60207.34;;;-145.46;96.15
76478;BME280;65309;49.790;18.972;2023-11-21T01:49:33;60222.06;;;-145.46;96.58
76478;BME280;65309;49.790;18.972;2023-11-21T01:54:36;60184.22;;;-145.46;97.07
76478;BME280;65309;49.790;18.972;2023-11-21T01:59:38;60238.88;;;-145.46;97.36
76478;BME280;65309;49.790;18.972;2023-11-21T02:04:45;60165.31;;;-145.46;97.53
76478;BME280;65309;49.790;18.972;2023-11-21T02:09:47;60243.09;;;-145.46;97.60
76478;BME280;65309;49.790;18.972;2023-11-21T02:14:50;60215.75;;;-145.46;97.55
76478;BME280;65309;49.790;18.972;2023-11-21T02:19:54;60205.25;;;-145.46;96.88
76478;BME280;65309;49.790;18.972;2023-11-21T02:24:57;60198.94;;;-145.46;97.04
76478;BME280;65309;49.790;18.972;2023-11-21T02:30:00;60209.47;;;-145.46;96.93
76478;BME280;65309;49.790;18.972;2023-11-21T02:35:03;60224.19;;;-145.46;96.08
76478;BME280;65309;49.790;18.972;2023-11-21T02:40:11;60219.97;;;-145.46;95.23
76478;BME280;65309;49.790;18.972;2023-11-21T02:45:15;60177.94;;;-145.46;95.10
76478;BME280;65309;49.790;18.972;2023-11-21T02:50:19;60209.47;;;-145.46;94.00
76478;BME280;65309;49.790;18.972;2023-11-21T02:55:23;60224.19;;;-145.46;93.25
76478;BME280;65309;49.790;18.972;2023-11-21T03:00:27;60205.25;;;-145.46;92.74
76478;BME280;65309;49.790;18.972;2023-11-21T03:05:29;60245.19;;;-145.46;92.81
76478;BME280;65309;49.790;18.972;2023-11-21T03:10:33;60236.78;;;-145.46;92.93
76478;BME280;65309;49.790;18.972;2023-11-21T03:15:35;60224.19;;;-145.46;92.44
76478;BME280;65309;49.790;18.972;2023-11-21T03:20:37;60230.47;;;-145.46;92.31
76478;BME280;65309;49.790;18.972;2023-11-21T03:25:42;60247.31;;;-145.46;92.20
76478;BME280;65309;49.790;18.972;2023-11-21T03:30:44;60226.28;;;-145.46;92.14
76478;BME280;65309;49.790;18.972;2023-11-21T03:35:46;60196.84;;;-145.46;91.44
76478;BME280;65309;49.790;18.972;2023-11-21T03:40:50;60222.06;;;-145.46;91.73
76478;BME280;65309;49.790;18.972;2023-11-21T03:45:52;60228.38;;;-145.46;90.75
76478;BME280;65309;49.790;18.972;2023-11-21T03:50:55;60196.84;;;-145.46;91.11
76478;BME280;65309;49.790;18.972;2023-11-21T03:55:58;60190.53;;;-145.46;91.35
76478;BME280;65309;49.790;18.972;2023-11-21T04:01:00;60205.25;;;-145.46;90.92
76478;BME280;65309;49.790;18.972;2023-11-21T04:06:04;60211.56;;;-145.46;90.24
76478;BME280;65309;49.790;18.972;2023-11-21T04:11:09;60207.34;;;-145.46;90.30
76478;BME280;65309;49.790;18.972;2023-11-21T04:16:13;60188.44;;;-145.46;90.17
76478;BME280;65309;49.790;18.972;2023-11-21T04:21:16;60230.47;;;-145.46;89.33
76478;BME280;65309;49.790;18.972;2023-11-21T04:26:19;60259.91;;;-145.46;89.64
76478;BME280;65309;49.790;18.972;2023-11-21T04:31:22;60177.94;;;-145.46;89.37
76478;BME280;65309;49.790;18.972;2023-11-21T04:36:24;60238.88;;;-145.46;89.37
76478;BME280;65309;49.790;18.972;2023-11-21T04:41:27;60201.06;;;-145.46;89.03
76478;BME280;65309;49.790;18.972;2023-11-21T04:46:30;60201.06;;;-145.46;88.34
76478;BME280;65309;49.790;18.972;2023-11-21T04:51:32;60230.47;;;-145.46;88.76
76478;BME280;65309;49.790;18.972;2023-11-21T04:56:36;60213.66;;;-145.46;87.97
76478;BME280;65309;49.790;18.972;2023-11-21T05:01:38;60207.34;;;-145.46;87.95
76478;BME280;65309;49.790;18.972;2023-11-21T05:06:41;60238.88;;;-145.46;87.88
76478;BME280;65309;49.790;18.972;2023-11-21T05:11:44;60198.94;;;-145.46;87.92
76478;BME280;65309;49.790;18.972;2023-11-21T05:16:46;60266.22;;;-145.46;88.04
76478;BME280;65309;49.790;18.972;2023-11-21T05:21:49;60243.09;;;-145.46;88.77
76478;BME280;65309;49.790;18.972;2023-11-21T05:26:52;60234.69;;;-145.46;88.40
76478;BME280;65309;49.790;18.972;2023-11-21T05:31:54;60171.63;;;-145.46;89.33
76478;BME280;65309;49.790;18.972;2023-11-21T05:36:57;60205.25;;;-145.46;89.26
76478;BME280;65309;49.790;18.972;2023-11-21T05:42:02;60215.75;;;-145.46;89.68
76478;BME280;65309;49.790;18.972;2023-11-21T05:47:05;60219.97;;;-145.46;89.79
76478;BME280;65309;49.790;18.972;2023-11-21T05:52:09;60201.06;;;-145.46;90.01
76478;BME280;65309;49.790;18.972;2023-11-21T05:57:13;60186.34;;;-145.46;90.03
76478;BME280;65309;49.790;18.972;2023-11-21T06:02:15;60201.06;;;-145.46;90.69
76478;BME280;65309;49.790;18.972;2023-11-21T06:07:18;60190.53;;;-145.46;91.39
76478;BME280;65309;49.790;18.972;2023-11-21T06:12:22;60259.91;;;-145.46;91.02
76478;BME280;65309;49.790;18.972;2023-11-21T06:17:25;60209.47;;;-145.46;90.14
76478;BME280;65309;49.790;18.972;2023-11-21T06:22:29;60180.03;;;-145.46;89.33
76478;BME280;65309;49.790;18.972;2023-11-21T06:27:34;60190.53;;;-145.46;89.50
76478;BME280;65309;49.790;18.972;2023-11-21T06:32:38;60175.81;;;-145.46;89.49
76478;BME280;65309;49.790;18.972;2023-11-21T06:37:41;60188.44;;;-145.46;88.29
76478;BME280;65309;49.790;18.972;2023-11-21T06:42:50;60198.94;;;-145.46;88.39
76478;BME280;65309;49.790;18.972;2023-11-21T06:47:53;60215.75;;;-145.46;88.34
76478;BME280;65309;49.790;18.972;2023-11-21T06:52:55;60213.66;;;-145.46;88.12
76478;BME280;65309;49.790;18.972;2023-11-21T06:57:59;60247.31;;;-145.46;88.32
76478;BME280;65309;49.790;18.972;2023-11-21T07:03:02;60192.63;;;-145.46;88.70
76478;BME280;65309;49.790;18.972;2023-11-21T07:08:05;60192.63;;;-145.46;89.04
76478;BME280;65309;49.790;18.972;2023-11-21T07:13:08;60186.34;;;-145.46;88.96
76478;BME280;65309;49.790;18.972;2023-11-21T07:18:14;60198.94;;;-145.46;89.43
76478;BME280;65309;49.790;18.972;2023-11-21T07:23:16;60169.50;;;-145.46;89.31
76478;BME280;65309;49.790;18.972;2023-11-21T07:28:20;60192.63;;;-145.46;88.80
76478;BME280;65309;49.790;18.972;2023-11-21T07:33:22;60171.63;;;-145.46;88.53
76478;BME280;65309;49.790;18.972;2023-11-21T07:38:24;60222.06;;;-145.46;88.04
76478;BME280;65309;49.790;18.972;2023-11-21T07:43:28;60184.22;;;-145.46;86.61
76478;BME280;65309;49.790;18.972;2023-11-21T07:48:37;60217.88;;;-145.46;85.57
76478;BME280;65309;49.790;18.972;2023-11-21T07:53:39;60211.56;;;-145.46;84.10
76478;BME280;65309;49.790;18.972;2023-11-21T07:58:42;60198.94;;;-145.46;82.81
76478;BME280;65309;49.790;18.972;2023-11-21T08:03:45;60213.66;;;-145.46;81.90
76478;BME280;65309;49.790;18.972;2023-11-21T08:08:47;60184.22;;;-145.46;80.45
76478;BME280;65309;49.790;18.972;2023-11-21T08:13:51;60173.72;;;-145.46;79.47
76478;BME280;65309;49.790;18.972;2023-11-21T08:18:53;60205.25;;;-145.46;79.80
76478;BME280;65309;49.790;18.972;2023-11-21T08:23:56;60188.44;;;-145.46;80.50
76478;BME280;65309;49.790;18.972;2023-11-21T08:29:00;60154.81;;;-145.46;79.88
76478;BME280;65309;49.790;18.972;2023-11-21T08:34:03;60188.44;;;-145.46;78.00
76478;BME280;65309;49.790;18.972;2023-11-21T08:39:05;60182.13;;;-145.46;78.68
76478;BME280;65309;49.790;18.972;2023-11-21T08:44:09;60217.88;;;-145.46;78.34
76478;BME280;65309;49.790;18.972;2023-11-21T08:49:11;60161.09;;;-145.46;78.47
76478;BME280;65309;49.790;18.972;2023-11-21T08:54:14;60192.63;;;-145.46;77.86
76478;BME280;65309;49.790;18.972;2023-11-21T08:59:17;60165.31;;;-145.46;79.01
76478;BME280;65309;49.790;18.972;2023-11-21T09:04:19;60226.28;;;-145.46;79.68
76478;BME280;65309;49.790;18.972;2023-11-21T09:09:22;60222.06;;;-145.46;79.06
76478;BME280;65309;49.790;18.972;2023-11-21T09:14:25;60205.25;;;-145.46;79.91
76478;BME280;65309;49.790;18.972;2023-11-21T09:19:27;60209.47;;;-145.46;80.54
76478;BME280;65309;49.790;18.972;2023-11-21T09:24:29;60184.22;;;-145.46;80.47
76478;BME280;65309;49.790;18.972;2023-11-21T09:29:33;60192.63;;;-145.46;81.48
76478;BME280;65309;49.790;18.972;2023-11-21T09:34:35;60238.88;;;-145.46;82.58
76478;BME280;65309;49.790;18.972;2023-11-21T09:39:40;60171.63;;;-145.46;83.95
76478;BME280;65309;49.790;18.972;2023-11-21T09:44:48;60222.06;;;-145.46;83.07
76478;BME280;65309;49.790;18.972;2023-11-21T09:49:54;60188.44;;;-145.46;82.96
76478;BME280;65309;49.790;18.972;2023-11-21T09:54:59;60188.44;;;-145.46;82.08
76478;BME280;65309;49.790;18.972;2023-11-21T10:00:05;60207.34;;;-145.46;80.80
76478;BME280;65309;49.790;18.972;2023-11-21T10:05:13;60211.56;;;-145.46;80.13
76478;BME280;65309;49.790;18.972;2023-11-21T10:10:19;60161.09;;;-145.46;79.00
76478;BME280;65309;49.790;18.972;2023-11-21T10:15:25;60167.41;;;-145.46;77.47
76478;BME280;65309;49.790;18.972;2023-11-21T10:20:27;60167.41;;;-145.46;77.85
76478;BME280;65309;49.790;18.972;2023-11-21T10:25:29;60203.16;;;-145.46;77.77
76478;BME280;65309;49.790;18.972;2023-11-21T10:30:34;60175.81;;;-145.46;77.78
76478;BME280;65309;49.790;18.972;2023-11-21T10:35:42;60180.03;;;-145.46;78.17
76478;BME280;65309;49.790;18.972;2023-11-21T10:40:49;60205.25;;;-145.46;78.33
76478;BME280;65309;49.790;18.972;2023-11-21T10:45:57;60167.41;;;-145.46;77.65
76478;BME280;65309;49.790;18.972;2023-11-21T10:51:06;60222.06;;;-145.46;78.31
76478;BME280;65309;49.790;18.972;2023-11-21T10:56:13;60182.13;;;-145.46;78.44
76478;BME280;65309;49.790;18.972;2023-11-21T11:01:21;60192.63;;;-145.46;79.06
76478;BME280;65309;49.790;18.972;2023-11-21T11:06:28;60175.81;;;-145.46;80.57
76478;BME280;65309;49.790;18.972;2023-11-21T11:11:30;60228.38;;;-145.46;81.01
76478;BME280;65309;49.790;18.972;2023-11-21T11:16:34;60180.03;;;-145.46;80.83
76478;BME280;65309;49.790;18.972;2023-11-21T11:21:46;60159.00;;;-145.46;79.56
76478;BME280;65309;49.790;18.972;2023-11-21T11:26:55;60175.81;;;-145.46;79.58
76478;BME280;65309;49.790;18.972;2023-11-21T11:32:06;60205.25;;;-145.46;79.33
76478;BME280;65309;49.790;18.972;2023-11-21T11:37:12;60232.59;;;-145.46;80.62
76478;BME280;65309;49.790;18.972;2023-11-21T11:42:17;60184.22;;;-145.46;81.44
76478;BME280;65309;49.790;18.972;2023-11-21T11:47:23;60201.06;;;-145.46;81.71
76478;BME280;65309;49.790;18.972;2023-11-21T11:52:42;60188.44;;;-145.46;81.08
76478;BME280;65309;49.790;18.972;2023-11-21T11:57:46;60144.28;;;-145.46;80.99
76478;BME280;65309;49.790;18.972;2023-11-21T12:02:55;60203.16;;;-145.46;81.25
76478;BME280;65309;49.790;18.972;2023-11-21T12:08:03;60192.63;;;-145.46;80.62
76478;BME280;65309;49.790;18.972;2023-11-21T12:13:07;60192.63;;;-145.46;80.83
76478;BME280;65309;49.790;18.972;2023-11-21T12:18:11;60205.25;;;-145.46;79.65
76478;BME280;65309;49.790;18.972;2023-11-21T12:23:14;60219.97;;;-145.46;80.08
76478;BME280;65309;49.790;18.972;2023-11-21T12:28:18;60156.91;;;-145.46;78.98
76478;BME280;65309;49.790;18.972;2023-11-21T12:33:22;60201.06;;;-145.46;80.03
76478;BME280;65309;49.790;18.972;2023-11-21T12:38:24;60224.19;;;-145.46;78.40
76478;BME280;65309;49.790;18.972;2023-11-21T12:43:26;60175.81;;;-145.46;78.94
76478;BME280;65309;49.790;18.972;2023-11-21T12:48:31;60192.63;;;-145.46;79.22
76478;BME280;65309;49.790;18.972;2023-11-21T12:53:33;60201.06;;;-145.46;80.71
76478;BME280;65309;49.790;18.972;2023-11-21T12:58:44;60165.31;;;-145.46;80.43
76478;BME280;65309;49.790;18.972;2023-11-21T13:03:50;60253.59;;;-145.46;80.92
76478;BME280;65309;49.790;18.972;2023-11-21T13:08:54;60163.22;;;-145.46;81.06
76478;BME280;65309;49.790;18.972;2023-11-21T13:13:56;60198.94;;;-145.46;80.35
76478;BME280;65309;49.790;18.972;2023-11-21T13:19:00;60175.81;;;-145.46;80.03
76478;BME280;65309;49.790;18.972;2023-11-21T13:24:03;60175.81;;;-145.46;80.06
76478;BME280;65309;49.790;18.972;2023-11-21T13:29:05;60175.81;;;-145.46;79.80
76478;BME280;65309;49.790;18.972;2023-11-21T13:34:09;60213.66;;;-145.46;81.45
76478;BME280;65309;49.790;18.972;2023-11-21T13:39:11;60255.72;;;-145.46;82.65
76478;BME280;65309;49.790;18.972;2023-11-21T13:44:18;60205.25;;;-145.46;83.59
76478;BME280;65309;49.790;18.972;2023-11-21T13:49:32;60215.75;;;-145.46;84.39
76478;BME280;65309;49.790;18.972;2023-11-21T13:54:43;60192.63;;;-145.46;85.69
76478;BME280;65309;49.790;18.972;2023-11-21T13:59:45;60173.72;;;-145.46;86.10
76478;BME280;65309;49.790;18.972;2023-11-21T14:05:47;70918.97;;;-145.47;100.00
76478;BME280;65309;49.790;18.972;2023-11-21T14:10:53;70918.97;;;-145.47;100.00
76478;BME280;65309;49.790;18.972;2023-11-21T14:15:59;70918.97;;;-145.47;100.00
76478;BME280;65309;49.790;18.972;2023-11-21T14:21:06;70918.97;;;-145.47;100.00
76478;BME280;65309;49.790;18.972;2023-11-21T14:26:08;70918.97;;;-145.47;100.00
76478;BME280;65309;49.790;18.972;2023-11-21T14:31:10;70918.97;;;-145.47;100.00
76478;BME280;65309;49.790;18.972;2023-11-21T14:36:17;70918.97;;;-145.47;100.00
76478;BME280;65309;49.790;18.972;2023-11-21T14:41:19;70918.97;;;-145.47;100.00
76478;BME280;65309;49.790;18.972;2023-11-21T14:46:21;70918.97;;;-145.47;100.00
76478;BME280;65309;49.790;18.972;2023-11-21T14:51:25;70918.97;;;-145.47;100.00
76478;BME280;65309;49.790;18.972;2023-11-21T14:56:29;70918.97;;;-145.47;100.00
76478;BME280;65309;49.790;18.972;2023-11-21T15:01:32;70918.97;;;-145.47;100.00
76478;BME280;65309;49.790;18.972;2023-11-21T15:06:55;70918.97;;;-145.47;100.00
76478;BME280;65309;49.790;18.972;2023-11-21T15:12:01;70918.97;;;-145.47;100.00
76478;BME280;65309;49.790;18.972;2023-11-21T15:17:16;70918.97;;;-145.47;100.00
76478;BME280;65309;49.790;18.972;2023-11-21T15:22:29;70918.97;;;-145.47;100.00
76478;BME280;65309;49.790;18.972;2023-11-21T15:27:31;70918.97;;;-145.47;100.00
76478;BME280;65309;49.790;18.972;2023-11-21T15:32:34;70918.97;;;-145.47;100.00
76478;BME280;65309;49.790;18.972;2023-11-21T15:37:37;70918.97;;;-145.47;100.00
76478;BME280;65309;49.790;18.972;2023-11-21T15:42:40;70918.97;;;-145.47;100.00
76478;BME280;65309;49.790;18.972;2023-11-21T15:47:42;70918.97;;;-145.47;100.00
76478;BME280;65309;49.790;18.972;2023-11-21T15:52:46;70918.97;;;-145.47;100.00
76478;BME280;65309;49.790;18.972;2023-11-21T15:57:59;70918.97;;;-145.47;100.00
76478;BME280;65309;49.790;18.972;2023-11-21T16:03:02;70918.97;;;-145.47;100.00
76478;BME280;65309;49.790;18.972;2023-11-21T16:08:06;70918.97;;;-145.47;100.00
76478;BME280;65309;49.790;18.972;2023-11-21T16:13:08;70918.97;;;-145.47;100.00
76478;BME280;65309;49.790;18.972;2023-11-21T16:18:10;70918.97;;;-145.47;100.00
76478;BME280;65309;49.790;18.972;2023-11-21T16:23:14;70918.97;;;-145.47;100.00
76478;BME280;65309;49.790;18.972;2023-11-21T16:28:18;70918.97;;;-145.47;100.00
76478;BME280;65309;49.790;18.972;2023-11-21T16:33:20;70918.97;;;-145.47;100.00
76478;BME280;65309;49.790;18.972;2023-11-21T16:38:24;70918.97;;;-145.47;100.00
76478;BME280;65309;49.790;18.972;2023-11-21T16:43:26;70918.97;;;-145.47;100.00
76478;BME280;65309;49.790;18.972;2023-11-21T16:48:28;70918.97;;;-145.47;100.00
76478;BME280;65309;49.790;18.972;2023-11-21T16:53:32;70918.97;;;-145.47;100.00
76478;BME280;65309;49.790;18.972;2023-11-21T16:58:34;70918.97;;;-145.47;100.00
76478;BME280;65309;49.790;18.972;2023-11-21T17:03:37;70918.97;;;-145.47;100.00
76478;BME280;65309;49.790;18.972;2023-11-21T17:08:42;70918.97;;;-145.47;100.00
76478;BME280;65309;49.790;18.972;2023-11-21T17:13:46;70918.97;;;-145.47;100.00
76478;BME280;65309;49.790;18.972;2023-11-21T17:18:48;70918.97;;;-145.47;100.00
76478;BME280;65309;49.790;18.972;2023-11-21T17:23:52;70918.97;;;-145.47;100.00
76478;BME280;65309;49.790;18.972;2023-11-21T17:28:54;70918.97;;;-145.47;100.00
76478;BME280;65309;49.790;18.972;2023-11-21T17:33:57;70918.97;;;-145.47;100.00
76478;BME280;65309;49.790;18.972;2023-11-21T17:39:01;70918.97;;;-145.47;100.00
76478;BME280;65309;49.790;18.972;2023-11-21T17:44:03;70918.97;;;-145.47;100.00
76478;BME280;65309;49.790;18.972;2023-11-21T17:49:06;70918.97;;;-145.47;100.00
76478;BME280;65309;49.790;18.972;2023-11-21T17:54:11;70918.97;;;-145.47;100.00
76478;BME280;65309;49.790;18.972;2023-11-21T17:59:14;70918.97;;;-145.47;100.00
76478;BME280;65309;49.790;18.972;2023-11-21T18:04:18;70918.97;;;-145.47;100.00
76478;BME280;65309;49.790;18.972;2023-11-21T18:09:22;70918.97;;;-145.47;100.00
76478;BME280;65309;49.790;18.972;2023-11-21T18:14:25;70918.97;;;-145.47;100.00
76478;BME280;65309;49.790;18.972;2023-11-21T18:19:29;70918.97;;;-145.47;100.00
76478;BME280;65309;49.790;18.972;2023-11-21T18:24:32;70918.97;;;-145.47;100.00
76478;BME280;65309;49.790;18.972;2023-11-21T18:29:35;70918.97;;;-145.47;100.00
76478;BME280;65309;49.790;18.972;2023-11-21T18:34:40;70918.97;;;-145.47;100.00
76478;BME280;65309;49.790;18.972;2023-11-21T18:39:45;60241.00;;;-145.46;100.00
76478;BME280;65309;49.790;18.972;2023-11-21T18:44:47;60207.34;;;-145.46;100.00
76478;BME280;65309;49.790;18.972;2023-11-21T18:50:00;70918.97;;;-145.47;100.00
76478;BME280;65309;49.790;18.972;2023-11-21T18:55:05;70918.97;;;-145.47;100.00
76478;BME280;65309;49.790;18.972;2023-11-21T19:00:08;70918.97;;;-145.47;100.00
76478;BME280;65309;49.790;18.972;2023-11-21T19:05:14;70918.97;;;-145.47;100.00
76478;BME280;65309;49.790;18.972;2023-11-21T19:10:18;60196.84;;;-145.46;100.00
76478;BME280;65309;49.790;18.972;2023-11-21T19:15:21;60215.75;;;-145.46;100.00
76478;BME280;65309;49.790;18.972;2023-11-21T19:20:24;60232.59;;;-145.46;100.00
76478;BME280;65309;49.790;18.972;2023-11-21T19:25:28;60217.88;;;-145.46;100.00
76478;BME280;65309;49.790;18.972;2023-11-21T19:30:30;60219.97;;;-145.46;100.00
76478;BME280;65309;49.790;18.972;2023-11-21T19:35:35;60213.66;;;-145.46;100.00
76478;BME280;65309;49.790;18.972;2023-11-21T19:40:42;60247.31;;;-145.46;100.00
76478;BME280;65309;49.790;18.972;2023-11-21T19:45:45;60234.69;;;-145.46;100.00
76478;BME280;65309;49.790;18.972;2023-11-21T19:50:47;60234.69;;;-145.46;100.00
76478;BME280;65309;49.790;18.972;2023-11-21T19:55:51;60201.06;;;-145.46;100.00
76478;BME280;65309;49.790;18.972;2023-11-21T20:00:54;60217.88;;;-145.46;100.00
76478;BME280;65309;49.790;18.972;2023-11-21T20:05:56;60226.28;;;-145.46;100.00
76478;BME280;65309;49.790;18.972;2023-11-21T20:11:00;70918.97;;;-145.47;100.00
76478;BME280;65309;49.790;18.972;2023-11-21T20:16:02;70918.97;;;-145.47;100.00
76478;BME280;65309;49.790;18.972;2023-11-21T20:21:04;70918.97;;;-145.47;100.00
76478;BME280;65309;49.790;18.972;2023-11-21T20:26:08;60219.97;;;-145.46;100.00
76478;BME280;65309;49.790;18.972;2023-11-21T20:31:10;60201.06;;;-145.46;100.00
76478;BME280;65309;49.790;18.972;2023-11-21T20:36:12;60211.56;;;-145.46;100.00
76478;BME280;65309;49.790;18.972;2023-11-21T20:41:16;60234.69;;;-145.46;100.00
76478;BME280;65309;49.790;18.972;2023-11-21T20:46:18;60243.09;;;-145.46;100.00
76478;BME280;65309;49.790;18.972;2023-11-21T20:51:20;60236.78;;;-145.46;100.00
76478;BME280;65309;49.790;18.972;2023-11-21T20:56:25;60251.50;;;-145.46;100.00
76478;BME280;65309;49.790;18.972;2023-11-21T21:01:27;60215.75;;;-145.46;100.00
76478;BME280;65309;49.790;18.972;2023-11-21T21:06:31;60232.59;;;-145.46;100.00
76478;BME280;65309;49.790;18.972;2023-11-21T21:11:35;60234.69;;;-145.46;100.00
76478;BME280;65309;49.790;18.972;2023-11-21T21:16:40;60211.56;;;-145.46;100.00
76478;BME280;65309;49.790;18.972;2023-11-21T21:21:44;60209.47;;;-145.46;100.00
76478;BME280;65309;49.790;18.972;2023-11-21T21:26:47;60238.88;;;-145.46;100.00
76478;BME280;65309;49.790;18.972;2023-11-21T21:31:50;60213.66;;;-145.46;100.00
76478;BME280;65309;49.790;18.972;2023-11-21T21:36:53;60241.00;;;-145.46;100.00
76478;BME280;65309;49.790;18.972;2023-11-21T21:41:56;60234.69;;;-145.46;100.00
76478;BME280;65309;49.790;18.972;2023-11-21T21:46:58;60226.28;;;-145.46;100.00
76478;BME280;65309;49.790;18.972;2023-11-21T21:52:01;60234.69;;;-145.46;100.00
76478;BME280;65309;49.790;18.972;2023-11-21T21:57:05;60213.66;;;-145.46;100.00
76478;BME280;65309;49.790;18.972;2023-11-21T22:02:08;60230.47;;;-145.46;100.00
76478;BME280;65309;49.790;18.972;2023-11-21T22:07:10;60230.47;;;-145.46;100.00
76478;BME280;65309;49.790;18.972;2023-11-21T22:12:14;60238.88;;;-145.46;100.00
76478;BME280;65309;49.790;18.972;2023-11-21T22:17:16;60213.66;;;-145.46;100.00
76478;BME280;65309;49.790;18.972;2023-11-21T22:22:18;60249.41;;;-145.46;100.00
76478;BME280;65309;49.790;18.972;2023-11-21T22:27:22;60253.59;;;-145.46;100.00
76478;BME280;65309;49.790;18.972;2023-11-21T22:32:24;60226.28;;;-145.46;100.00
76478;BME280;65309;49.790;18.972;2023-11-21T22:37:26;60232.59;;;-145.46;100.00
76478;BME280;65309;49.790;18.972;2023-11-21T22:42:29;60219.97;;;-145.46;100.00
76478;BME280;65309;49.790;18.972;2023-11-21T22:47:32;60213.66;;;-145.46;100.00
76478;BME280;65309;49.790;18.972;2023-11-21T22:52:34;60222.06;;;-145.46;100.00
76478;BME280;65309;49.790;18.972;2023-11-21T22:57:38;60243.09;;;-145.46;100.00
76478;BME280;65309;49.790;18.972;2023-11-21T23:02:40;60234.69;;;-145.46;100.00
76478;BME280;65309;49.790;18.972;2023-11-21T23:07:42;60209.47;;;-145.46;100.00
76478;BME280;65309;49.790;18.972;2023-11-21T23:12:47;60230.47;;;-145.46;100.00
76478;BME280;65309;49.790;18.972;2023-11-21T23:17:49;60230.47;;;-145.46;100.00
76478;BME280;65309;49.790;18.972;2023-11-21T23:22:52;60241.00;;;-145.46;100.00
76478;BME280;65309;49.790;18.972;2023-11-21T23:27:55;60201.06;;;-145.46;100.00
76478;BME280;65309;49.790;18.972;2023-11-21T23:32:57;60238.88;;;-145.46;100.00
76478;BME280;65309;49.790;18.972;2023-11-21T23:38:00;60203.16;;;-145.46;100.00
76478;BME280;65309;49.790;18.972;2023-11-21T23:43:03;60209.47;;;-145.46;100.00
76478;BME280;65309;49.790;18.972;2023-11-21T23:48:05;60207.34;;;-145.46;100.00
76478;BME280;65309;49.790;18.972;2023-11-21T23:53:08;60192.63;;;-145.46;100.00
76478;BME280;65309;49.790;18.972;2023-11-21T23:58:12;60198.94;;;-145.46;100.00
